sensor_id;sensor_type;location;lat;lon;timestamp;temperature;humidity
10046;DHT22;5063;50.878;4.742;2024-01-25T00:01:34;9.30;99.90
10046;DHT22;5063;50.878;4.742;2024-01-25T00:04:00;9.30;99.90
10046;DHT22;5063;50.878;4.742;2024-01-25T00:06:26;9.20;99.90
10046;DHT22;5063;50.878;4.742;2024-01-25T00:08:52;9.20;99.90
10046;DHT22;5063;50.878;4.742;2024-01-25T00:11:18;9.20;99.90
10046;DHT22;5063;50.878;4.742;2024-01-25T00:13:43;9.20;99.90
10046;DHT22;5063;50.878;4.742;2024-01-25T00:16:09;9.20;99.90
10046;DHT22;5063;50.878;4.742;2024-01-25T00:18:35;9.20;99.90
10046;DHT22;5063;50.878;4.742;2024-01-25T00:21:00;9.10;99.90
10046;DHT22;5063;50.878;4.742;2024-01-25T00:23:26;9.00;99.90
10046;DHT22;5063;50.878;4.742;2024-01-25T00:25:52;9.00;99.90
10046;DHT22;5063;50.878;4.742;2024-01-25T00:28:18;8.80;99.90
10046;DHT22;5063;50.878;4.742;2024-01-25T00:30:44;8.70;99.90
10046;DHT22;5063;50.878;4.742;2024-01-25T00:33:10;8.60;99.90
10046;DHT22;5063;50.878;4.742;2024-01-25T00:35:36;8.50;99.90
10046;DHT22;5063;50.878;4.742;2024-01-25T00:38:01;8.40;99.90
10046;DHT22;5063;50.878;4.742;2024-01-25T00:40:28;8.40;99.90
10046;DHT22;5063;50.878;4.742;2024-01-25T00:42:54;8.50;99.90
10046;DHT22;5063;50.878;4.742;2024-01-25T00:45:20;8.30;99.90
10046;DHT22;5063;50.878;4.742;2024-01-25T00:47:47;8.20;99.90
10046;DHT22;5063;50.878;4.742;2024-01-25T00:50:13;8.20;99.90
10046;DHT22;5063;50.878;4.742;2024-01-25T00:52:39;8.10;99.90
10046;DHT22;5063;50.878;4.742;2024-01-25T00:55:06;8.10;99.90
10046;DHT22;5063;50.878;4.742;2024-01-25T00:57:32;8.10;99.90
10046;DHT22;5063;50.878;4.742;2024-01-25T00:59:58;8.40;99.90
10046;DHT22;5063;50.878;4.742;2024-01-25T01:02:25;8.20;99.90
10046;DHT22;5063;50.878;4.742;2024-01-25T01:04:57;8.40;99.90
10046;DHT22;5063;50.878;4.742;2024-01-25T01:07:23;8.60;99.90
10046;DHT22;5063;50.878;4.742;2024-01-25T01:09:48;8.40;99.90
10046;DHT22;5063;50.878;4.742;2024-01-25T01:12:14;8.50;99.90
10046;DHT22;5063;50.878;4.742;2024-01-25T01:14:40;8.30;99.90
10046;DHT22;5063;50.878;4.742;2024-01-25T01:17:05;8.30;99.90
10046;DHT22;5063;50.878;4.742;2024-01-25T01:19:31;8.20;99.90
10046;DHT22;5063;50.878;4.742;2024-01-25T01:21:57;8.10;99.90
10046;DHT22;5063;50.878;4.742;2024-01-25T01:24:23;8.20;99.90
10046;DHT22;5063;50.878;4.742;2024-01-25T01:26:48;7.90;99.90
10046;DHT22;5063;50.878;4.742;2024-01-25T01:29:16;7.90;99.90
10046;DHT22;5063;50.878;4.742;2024-01-25T01:31:42;7.80;99.90
10046;DHT22;5063;50.878;4.742;2024-01-25T01:34:07;7.70;99.90
10046;DHT22;5063;50.878;4.742;2024-01-25T01:36:33;7.50;99.90
10046;DHT22;5063;50.878;4.742;2024-01-25T01:38:59;7.60;99.90
10046;DHT22;5063;50.878;4.742;2024-01-25T01:41:25;7.50;99.90
10046;DHT22;5063;50.878;4.742;2024-01-25T01:43:54;7.40;99.90
10046;DHT22;5063;50.878;4.742;2024-01-25T01:48:49;7.30;99.90
10046;DHT22;5063;50.878;4.742;2024-01-25T01:51:14;7.20;99.90
10046;DHT22;5063;50.878;4.742;2024-01-25T01:53:40;7.20;99.90
10046;DHT22;5063;50.878;4.742;2024-01-25T01:56:06;7.10;99.90
10046;DHT22;5063;50.878;4.742;2024-01-25T01:58:32;7.20;99.90
10046;DHT22;5063;50.878;4.742;2024-01-25T02:00:59;7.10;99.90
10046;DHT22;5063;50.878;4.742;2024-01-25T02:03:25;7.10;99.90
10046;DHT22;5063;50.878;4.742;2024-01-25T02:05:51;7.00;99.90
10046;DHT22;5063;50.878;4.742;2024-01-25T02:08:16;6.80;99.90
10046;DHT22;5063;50.878;4.742;2024-01-25T02:10:42;6.80;99.90
10046;DHT22;5063;50.878;4.742;2024-01-25T02:13:08;6.70;99.90
10046;DHT22;5063;50.878;4.742;2024-01-25T02:15:34;6.20;99.90
10046;DHT22;5063;50.878;4.742;2024-01-25T02:18:00;6.60;99.90
10046;DHT22;5063;50.878;4.742;2024-01-25T02:20:26;6.70;99.90
10046;DHT22;5063;50.878;4.742;2024-01-25T02:22:51;6.70;99.90
10046;DHT22;5063;50.878;4.742;2024-01-25T02:25:17;6.90;99.90
10046;DHT22;5063;50.878;4.742;2024-01-25T02:27:43;6.80;99.90
10046;DHT22;5063;50.878;4.742;2024-01-25T02:30:08;6.80;99.90
10046;DHT22;5063;50.878;4.742;2024-01-25T02:32:34;6.90;99.90
10046;DHT22;5063;50.878;4.742;2024-01-25T02:35:00;6.90;99.90
10046;DHT22;5063;50.878;4.742;2024-01-25T02:37:26;6.70;99.90
10046;DHT22;5063;50.878;4.742;2024-01-25T02:39:52;6.50;99.90
10046;DHT22;5063;50.878;4.742;2024-01-25T02:42:18;6.80;99.90
10046;DHT22;5063;50.878;4.742;2024-01-25T02:44:45;6.80;99.90
10046;DHT22;5063;50.878;4.742;2024-01-25T02:47:10;6.80;99.90
10046;DHT22;5063;50.878;4.742;2024-01-25T02:49:36;6.70;99.90
10046;DHT22;5063;50.878;4.742;2024-01-25T02:52:02;6.70;99.90
10046;DHT22;5063;50.878;4.742;2024-01-25T02:54:28;6.60;99.90
10046;DHT22;5063;50.878;4.742;2024-01-25T02:56:53;6.60;99.90
10046;DHT22;5063;50.878;4.742;2024-01-25T02:59:19;6.50;99.90
10046;DHT22;5063;50.878;4.742;2024-01-25T03:01:46;6.90;99.90
10046;DHT22;5063;50.878;4.742;2024-01-25T03:04:11;6.50;99.90
10046;DHT22;5063;50.878;4.742;2024-01-25T03:06:37;6.50;99.90
10046;DHT22;5063;50.878;4.742;2024-01-25T03:09:03;6.50;99.90
10046;DHT22;5063;50.878;4.742;2024-01-25T03:11:32;6.60;99.90
10046;DHT22;5063;50.878;4.742;2024-01-25T03:13:58;6.40;99.90
10046;DHT22;5063;50.878;4.742;2024-01-25T03:16:23;6.40;99.90
10046;DHT22;5063;50.878;4.742;2024-01-25T03:18:49;6.40;99.90
10046;DHT22;5063;50.878;4.742;2024-01-25T03:21:15;6.40;99.90
10046;DHT22;5063;50.878;4.742;2024-01-25T03:23:40;6.30;99.90
10046;DHT22;5063;50.878;4.742;2024-01-25T03:26:06;6.20;99.90
10046;DHT22;5063;50.878;4.742;2024-01-25T03:28:34;6.20;99.90
10046;DHT22;5063;50.878;4.742;2024-01-25T03:31:01;6.10;99.90
10046;DHT22;5063;50.878;4.742;2024-01-25T03:33:27;5.80;99.90
10046;DHT22;5063;50.878;4.742;2024-01-25T03:35:54;6.20;99.90
10046;DHT22;5063;50.878;4.742;2024-01-25T03:38:19;6.00;99.90
10046;DHT22;5063;50.878;4.742;2024-01-25T03:40:45;5.80;99.90
10046;DHT22;5063;50.878;4.742;2024-01-25T03:43:11;5.80;99.90
10046;DHT22;5063;50.878;4.742;2024-01-25T03:45:36;5.80;99.90
10046;DHT22;5063;50.878;4.742;2024-01-25T03:48:02;5.70;99.90
10046;DHT22;5063;50.878;4.742;2024-01-25T03:50:28;5.60;99.90
10046;DHT22;5063;50.878;4.742;2024-01-25T03:52:54;5.20;99.90
10046;DHT22;5063;50.878;4.742;2024-01-25T03:55:20;5.60;99.90
10046;DHT22;5063;50.878;4.742;2024-01-25T03:57:45;5.50;99.90
10046;DHT22;5063;50.878;4.742;2024-01-25T04:00:12;5.50;99.90
10046;DHT22;5063;50.878;4.742;2024-01-25T04:02:38;5.50;99.90
10046;DHT22;5063;50.878;4.742;2024-01-25T04:05:04;5.50;99.90
10046;DHT22;5063;50.878;4.742;2024-01-25T04:07:30;5.40;99.90
10046;DHT22;5063;50.878;4.742;2024-01-25T04:09:56;5.30;99.90
10046;DHT22;5063;50.878;4.742;2024-01-25T04:12:21;5.30;99.90
10046;DHT22;5063;50.878;4.742;2024-01-25T04:14:47;5.40;99.90
10046;DHT22;5063;50.878;4.742;2024-01-25T04:17:13;5.40;99.90
10046;DHT22;5063;50.878;4.742;2024-01-25T04:19:38;5.50;99.90
10046;DHT22;5063;50.878;4.742;2024-01-25T04:22:04;5.50;99.90
10046;DHT22;5063;50.878;4.742;2024-01-25T04:24:30;5.60;99.90
10046;DHT22;5063;50.878;4.742;2024-01-25T04:26:56;5.40;99.90
10046;DHT22;5063;50.878;4.742;2024-01-25T04:29:22;5.50;99.90
10046;DHT22;5063;50.878;4.742;2024-01-25T04:31:47;5.50;99.90
10046;DHT22;5063;50.878;4.742;2024-01-25T04:34:14;5.40;99.90
10046;DHT22;5063;50.878;4.742;2024-01-25T04:36:40;5.40;99.90
10046;DHT22;5063;50.878;4.742;2024-01-25T04:39:06;5.20;99.90
10046;DHT22;5063;50.878;4.742;2024-01-25T04:41:32;5.20;99.90
10046;DHT22;5063;50.878;4.742;2024-01-25T04:43:58;5.40;99.90
10046;DHT22;5063;50.878;4.742;2024-01-25T04:46:23;5.10;99.90
10046;DHT22;5063;50.878;4.742;2024-01-25T04:48:49;5.10;99.90
10046;DHT22;5063;50.878;4.742;2024-01-25T04:51:19;5.00;99.90
10046;DHT22;5063;50.878;4.742;2024-01-25T04:53:48;5.10;99.90
10046;DHT22;5063;50.878;4.742;2024-01-25T04:56:13;5.00;99.90
10046;DHT22;5063;50.878;4.742;2024-01-25T04:58:39;5.00;99.90
10046;DHT22;5063;50.878;4.742;2024-01-25T05:01:05;5.00;99.90
10046;DHT22;5063;50.878;4.742;2024-01-25T05:03:33;5.00;99.90
10046;DHT22;5063;50.878;4.742;2024-01-25T05:05:58;5.00;99.90
10046;DHT22;5063;50.878;4.742;2024-01-25T05:08:24;5.00;99.90
10046;DHT22;5063;50.878;4.742;2024-01-25T05:10:50;5.30;99.90
10046;DHT22;5063;50.878;4.742;2024-01-25T05:13:15;4.90;99.90
10046;DHT22;5063;50.878;4.742;2024-01-25T05:15:41;4.90;99.90
10046;DHT22;5063;50.878;4.742;2024-01-25T05:18:07;4.70;99.90
10046;DHT22;5063;50.878;4.742;2024-01-25T05:20:33;4.80;99.90
10046;DHT22;5063;50.878;4.742;2024-01-25T05:23:00;4.80;99.90
10046;DHT22;5063;50.878;4.742;2024-01-25T05:25:26;5.00;99.90
10046;DHT22;5063;50.878;4.742;2024-01-25T05:27:53;5.00;99.90
10046;DHT22;5063;50.878;4.742;2024-01-25T05:30:20;4.80;99.90
10046;DHT22;5063;50.878;4.742;2024-01-25T05:32:45;4.80;99.90
10046;DHT22;5063;50.878;4.742;2024-01-25T05:35:14;4.70;99.90
10046;DHT22;5063;50.878;4.742;2024-01-25T05:37:39;4.50;99.90
10046;DHT22;5063;50.878;4.742;2024-01-25T05:40:06;4.50;99.90
10046;DHT22;5063;50.878;4.742;2024-01-25T05:42:31;4.30;99.90
10046;DHT22;5063;50.878;4.742;2024-01-25T05:44:58;4.30;99.90
10046;DHT22;5063;50.878;4.742;2024-01-25T05:47:23;4.40;99.90
10046;DHT22;5063;50.878;4.742;2024-01-25T05:49:49;4.50;99.90
10046;DHT22;5063;50.878;4.742;2024-01-25T05:52:15;4.40;99.90
10046;DHT22;5063;50.878;4.742;2024-01-25T05:54:40;4.40;99.90
10046;DHT22;5063;50.878;4.742;2024-01-25T05:57:06;4.30;99.90
10046;DHT22;5063;50.878;4.742;2024-01-25T05:59:32;4.20;99.90
10046;DHT22;5063;50.878;4.742;2024-01-25T06:01:58;4.20;99.90
10046;DHT22;5063;50.878;4.742;2024-01-25T06:04:23;4.10;99.90
10046;DHT22;5063;50.878;4.742;2024-01-25T06:06:49;4.40;99.90
10046;DHT22;5063;50.878;4.742;2024-01-25T06:09:15;4.10;99.90
10046;DHT22;5063;50.878;4.742;2024-01-25T06:11:41;4.20;99.90
10046;DHT22;5063;50.878;4.742;2024-01-25T06:14:07;4.50;99.90
10046;DHT22;5063;50.878;4.742;2024-01-25T06:16:33;4.20;99.90
10046;DHT22;5063;50.878;4.742;2024-01-25T06:18:59;4.40;99.90
10046;DHT22;5063;50.878;4.742;2024-01-25T06:21:25;4.50;99.90
10046;DHT22;5063;50.878;4.742;2024-01-25T06:23:51;4.70;99.90
10046;DHT22;5063;50.878;4.742;2024-01-25T06:26:17;4.70;99.90
10046;DHT22;5063;50.878;4.742;2024-01-25T06:28:42;4.70;99.90
10046;DHT22;5063;50.878;4.742;2024-01-25T06:31:08;4.80;99.90
10046;DHT22;5063;50.878;4.742;2024-01-25T06:33:34;5.00;99.90
10046;DHT22;5063;50.878;4.742;2024-01-25T06:36:01;4.70;99.90
10046;DHT22;5063;50.878;4.742;2024-01-25T06:38:26;4.60;99.90
10046;DHT22;5063;50.878;4.742;2024-01-25T06:40:52;4.80;99.90
10046;DHT22;5063;50.878;4.742;2024-01-25T06:43:18;4.80;99.90
10046;DHT22;5063;50.878;4.742;2024-01-25T06:45:44;4.80;99.90
10046;DHT22;5063;50.878;4.742;2024-01-25T06:48:09;5.10;99.90
10046;DHT22;5063;50.878;4.742;2024-01-25T06:50:35;5.00;99.90
10046;DHT22;5063;50.878;4.742;2024-01-25T06:53:01;4.50;99.90
10046;DHT22;5063;50.878;4.742;2024-01-25T06:55:27;5.10;99.90
10046;DHT22;5063;50.878;4.742;2024-01-25T06:57:52;4.90;99.90
10046;DHT22;5063;50.878;4.742;2024-01-25T07:00:18;4.90;99.90
10046;DHT22;5063;50.878;4.742;2024-01-25T07:02:46;4.80;99.90
10046;DHT22;5063;50.878;4.742;2024-01-25T07:05:12;4.90;99.90
10046;DHT22;5063;50.878;4.742;2024-01-25T07:07:38;4.90;99.90
10046;DHT22;5063;50.878;4.742;2024-01-25T07:10:05;4.90;99.90
10046;DHT22;5063;50.878;4.742;2024-01-25T07:12:31;4.90;99.90
10046;DHT22;5063;50.878;4.742;2024-01-25T07:14:57;4.90;99.90
10046;DHT22;5063;50.878;4.742;2024-01-25T07:17:23;5.20;99.90
10046;DHT22;5063;50.878;4.742;2024-01-25T07:19:48;5.10;99.90
10046;DHT22;5063;50.878;4.742;2024-01-25T07:22:14;5.20;99.90
10046;DHT22;5063;50.878;4.742;2024-01-25T07:24:40;5.10;99.90
10046;DHT22;5063;50.878;4.742;2024-01-25T07:27:06;5.40;99.90
10046;DHT22;5063;50.878;4.742;2024-01-25T07:29:32;5.10;99.90
10046;DHT22;5063;50.878;4.742;2024-01-25T07:31:57;5.10;99.90
10046;DHT22;5063;50.878;4.742;2024-01-25T07:34:23;5.20;99.90
10046;DHT22;5063;50.878;4.742;2024-01-25T07:36:49;5.10;99.90
10046;DHT22;5063;50.878;4.742;2024-01-25T07:39:14;5.20;99.90
10046;DHT22;5063;50.878;4.742;2024-01-25T07:41:40;5.30;99.90
10046;DHT22;5063;50.878;4.742;2024-01-25T07:44:06;5.60;99.90
10046;DHT22;5063;50.878;4.742;2024-01-25T07:46:32;5.60;99.90
10046;DHT22;5063;50.878;4.742;2024-01-25T07:48:57;5.70;99.90
10046;DHT22;5063;50.878;4.742;2024-01-25T07:51:23;5.70;99.90
10046;DHT22;5063;50.878;4.742;2024-01-25T07:53:54;5.80;99.90
10046;DHT22;5063;50.878;4.742;2024-01-25T07:56:19;5.70;99.90
10046;DHT22;5063;50.878;4.742;2024-01-25T07:58:50;5.90;99.90
10046;DHT22;5063;50.878;4.742;2024-01-25T08:01:20;5.90;99.90
10046;DHT22;5063;50.878;4.742;2024-01-25T08:03:46;5.90;99.90
10046;DHT22;5063;50.878;4.742;2024-01-25T08:06:12;6.00;99.90
10046;DHT22;5063;50.878;4.742;2024-01-25T08:08:38;6.10;99.90
10046;DHT22;5063;50.878;4.742;2024-01-25T08:11:04;6.20;99.90
10046;DHT22;5063;50.878;4.742;2024-01-25T08:13:31;6.30;99.90
10046;DHT22;5063;50.878;4.742;2024-01-25T08:15:57;6.40;99.90
10046;DHT22;5063;50.878;4.742;2024-01-25T08:18:23;6.40;99.90
10046;DHT22;5063;50.878;4.742;2024-01-25T08:20:49;6.60;99.90
10046;DHT22;5063;50.878;4.742;2024-01-25T08:23:18;6.50;99.90
10046;DHT22;5063;50.878;4.742;2024-01-25T08:25:44;6.50;99.90
10046;DHT22;5063;50.878;4.742;2024-01-25T08:28:10;6.50;99.90
10046;DHT22;5063;50.878;4.742;2024-01-25T08:30:36;6.50;99.90
10046;DHT22;5063;50.878;4.742;2024-01-25T08:33:02;6.60;99.90
10046;DHT22;5063;50.878;4.742;2024-01-25T08:35:29;6.50;99.90
10046;DHT22;5063;50.878;4.742;2024-01-25T08:37:56;6.60;99.90
10046;DHT22;5063;50.878;4.742;2024-01-25T08:40:22;6.70;99.90
10046;DHT22;5063;50.878;4.742;2024-01-25T08:42:47;6.60;99.90
10046;DHT22;5063;50.878;4.742;2024-01-25T08:45:13;6.60;99.90
10046;DHT22;5063;50.878;4.742;2024-01-25T08:47:39;6.80;99.90
10046;DHT22;5063;50.878;4.742;2024-01-25T08:50:05;6.70;99.90
10046;DHT22;5063;50.878;4.742;2024-01-25T08:52:36;6.70;99.90
10046;DHT22;5063;50.878;4.742;2024-01-25T08:55:06;6.80;99.90
10046;DHT22;5063;50.878;4.742;2024-01-25T08:57:32;6.80;99.90
10046;DHT22;5063;50.878;4.742;2024-01-25T08:59:58;6.80;99.90
10046;DHT22;5063;50.878;4.742;2024-01-25T09:02:24;6.90;99.90
10046;DHT22;5063;50.878;4.742;2024-01-25T09:04:53;7.00;99.90
10046;DHT22;5063;50.878;4.742;2024-01-25T09:07:19;7.10;99.90
10046;DHT22;5063;50.878;4.742;2024-01-25T09:09:45;7.30;99.90
10046;DHT22;5063;50.878;4.742;2024-01-25T09:12:11;7.20;99.90
10046;DHT22;5063;50.878;4.742;2024-01-25T09:14:38;7.30;99.90
10046;DHT22;5063;50.878;4.742;2024-01-25T09:17:04;7.20;99.90
10046;DHT22;5063;50.878;4.742;2024-01-25T09:19:30;7.30;99.90
10046;DHT22;5063;50.878;4.742;2024-01-25T09:21:56;7.60;99.90
10046;DHT22;5063;50.878;4.742;2024-01-25T09:24:25;6.90;99.90
10046;DHT22;5063;50.878;4.742;2024-01-25T09:26:51;7.60;99.90
10046;DHT22;5063;50.878;4.742;2024-01-25T09:29:16;7.60;99.90
10046;DHT22;5063;50.878;4.742;2024-01-25T09:31:42;7.70;99.90
10046;DHT22;5063;50.878;4.742;2024-01-25T09:34:08;7.70;99.90
10046;DHT22;5063;50.878;4.742;2024-01-25T09:36:34;7.70;99.90
10046;DHT22;5063;50.878;4.742;2024-01-25T09:38:59;7.80;99.90
10046;DHT22;5063;50.878;4.742;2024-01-25T09:41:25;7.90;99.90
10046;DHT22;5063;50.878;4.742;2024-01-25T09:43:52;7.90;99.90
10046;DHT22;5063;50.878;4.742;2024-01-25T09:46:19;7.90;99.90
10046;DHT22;5063;50.878;4.742;2024-01-25T09:48:45;7.80;99.90
10046;DHT22;5063;50.878;4.742;2024-01-25T09:51:12;7.80;99.90
10046;DHT22;5063;50.878;4.742;2024-01-25T09:53:40;7.90;99.90
10046;DHT22;5063;50.878;4.742;2024-01-25T09:56:08;8.00;99.90
10046;DHT22;5063;50.878;4.742;2024-01-25T10:01:11;7.90;99.90
10046;DHT22;5063;50.878;4.742;2024-01-25T10:03:37;8.00;99.90
10046;DHT22;5063;50.878;4.742;2024-01-25T10:06:03;8.00;99.90
10046;DHT22;5063;50.878;4.742;2024-01-25T10:08:30;8.00;99.90
10046;DHT22;5063;50.878;4.742;2024-01-25T10:10:56;8.00;99.90
10046;DHT22;5063;50.878;4.742;2024-01-25T10:13:21;8.20;99.90
10046;DHT22;5063;50.878;4.742;2024-01-25T10:15:47;8.30;99.90
10046;DHT22;5063;50.878;4.742;2024-01-25T10:18:16;8.30;99.90
10046;DHT22;5063;50.878;4.742;2024-01-25T10:20:42;8.40;99.90
10046;DHT22;5063;50.878;4.742;2024-01-25T10:23:09;8.60;99.90
10046;DHT22;5063;50.878;4.742;2024-01-25T10:25:37;8.40;99.90
10046;DHT22;5063;50.878;4.742;2024-01-25T10:28:07;8.50;99.90
10046;DHT22;5063;50.878;4.742;2024-01-25T10:30:35;8.70;99.90
10046;DHT22;5063;50.878;4.742;2024-01-25T10:33:01;8.80;99.90
10046;DHT22;5063;50.878;4.742;2024-01-25T10:35:28;8.70;99.90
10046;DHT22;5063;50.878;4.742;2024-01-25T10:37:54;8.90;99.90
10046;DHT22;5063;50.878;4.742;2024-01-25T10:40:21;8.90;99.90
10046;DHT22;5063;50.878;4.742;2024-01-25T10:42:47;9.00;99.90
10046;DHT22;5063;50.878;4.742;2024-01-25T10:45:13;9.10;99.90
10046;DHT22;5063;50.878;4.742;2024-01-25T10:47:39;9.30;99.90
10046;DHT22;5063;50.878;4.742;2024-01-25T10:50:12;9.30;99.90
10046;DHT22;5063;50.878;4.742;2024-01-25T10:52:40;9.30;99.90
10046;DHT22;5063;50.878;4.742;2024-01-25T10:55:07;9.30;99.90
10046;DHT22;5063;50.878;4.742;2024-01-25T10:57:37;9.30;99.90
10046;DHT22;5063;50.878;4.742;2024-01-25T11:00:06;9.40;99.90
10046;DHT22;5063;50.878;4.742;2024-01-25T11:02:36;9.40;99.90
10046;DHT22;5063;50.878;4.742;2024-01-25T11:05:07;9.50;99.90
10046;DHT22;5063;50.878;4.742;2024-01-25T11:07:50;9.60;99.90
10046;DHT22;5063;50.878;4.742;2024-01-25T11:10:20;9.70;99.90
10046;DHT22;5063;50.878;4.742;2024-01-25T11:12:50;9.80;99.90
10046;DHT22;5063;50.878;4.742;2024-01-25T11:17:57;9.80;99.90
10046;DHT22;5063;50.878;4.742;2024-01-25T11:20:27;9.90;99.90
10046;DHT22;5063;50.878;4.742;2024-01-25T11:23:02;10.00;99.90
10046;DHT22;5063;50.878;4.742;2024-01-25T11:25:29;10.00;99.90
10046;DHT22;5063;50.878;4.742;2024-01-25T11:27:55;9.90;99.90
10046;DHT22;5063;50.878;4.742;2024-01-25T11:30:21;9.90;99.90
10046;DHT22;5063;50.878;4.742;2024-01-25T11:32:48;10.10;99.90
10046;DHT22;5063;50.878;4.742;2024-01-25T11:35:14;10.10;99.90
10046;DHT22;5063;50.878;4.742;2024-01-25T11:37:49;10.00;99.90
10046;DHT22;5063;50.878;4.742;2024-01-25T11:40:17;10.30;99.90
10046;DHT22;5063;50.878;4.742;2024-01-25T11:42:47;10.50;99.90
10046;DHT22;5063;50.878;4.742;2024-01-25T11:45:13;10.30;99.90
10046;DHT22;5063;50.878;4.742;2024-01-25T11:47:41;10.40;99.90
10046;DHT22;5063;50.878;4.742;2024-01-25T11:50:09;10.40;99.90
10046;DHT22;5063;50.878;4.742;2024-01-25T11:52:35;10.50;99.90
10046;DHT22;5063;50.878;4.742;2024-01-25T11:55:06;10.30;99.90
10046;DHT22;5063;50.878;4.742;2024-01-25T11:57:39;10.30;99.90
10046;DHT22;5063;50.878;4.742;2024-01-25T12:00:07;10.30;99.90
10046;DHT22;5063;50.878;4.742;2024-01-25T12:02:36;10.30;99.90
10046;DHT22;5063;50.878;4.742;2024-01-25T12:05:03;10.30;99.90
10046;DHT22;5063;50.878;4.742;2024-01-25T12:07:35;10.40;99.90
10046;DHT22;5063;50.878;4.742;2024-01-25T12:10:06;10.50;99.90
10046;DHT22;5063;50.878;4.742;2024-01-25T12:12:35;10.70;99.90
10046;DHT22;5063;50.878;4.742;2024-01-25T12:15:02;10.60;99.90
10046;DHT22;5063;50.878;4.742;2024-01-25T12:17:30;10.60;99.90
10046;DHT22;5063;50.878;4.742;2024-01-25T12:19:59;10.60;99.90
10046;DHT22;5063;50.878;4.742;2024-01-25T12:22:29;10.70;99.90
10046;DHT22;5063;50.878;4.742;2024-01-25T12:24:58;10.70;99.90
10046;DHT22;5063;50.878;4.742;2024-01-25T12:27:25;10.80;99.90
10046;DHT22;5063;50.878;4.742;2024-01-25T12:29:52;10.80;99.90
10046;DHT22;5063;50.878;4.742;2024-01-25T12:32:21;10.70;99.90
10046;DHT22;5063;50.878;4.742;2024-01-25T12:34:56;10.80;99.90
10046;DHT22;5063;50.878;4.742;2024-01-25T12:37:23;10.80;99.90
10046;DHT22;5063;50.878;4.742;2024-01-25T12:39:50;10.80;99.90
10046;DHT22;5063;50.878;4.742;2024-01-25T12:42:17;10.90;99.90
10046;DHT22;5063;50.878;4.742;2024-01-25T12:44:43;10.80;99.90
10046;DHT22;5063;50.878;4.742;2024-01-25T12:47:09;10.90;99.90
10046;DHT22;5063;50.878;4.742;2024-01-25T12:49:35;11.00;99.90
10046;DHT22;5063;50.878;4.742;2024-01-25T12:52:01;11.10;99.90
10046;DHT22;5063;50.878;4.742;2024-01-25T12:54:27;11.00;99.90
10046;DHT22;5063;50.878;4.742;2024-01-25T12:56:54;10.90;99.90
10046;DHT22;5063;50.878;4.742;2024-01-25T12:59:20;10.90;99.90
10046;DHT22;5063;50.878;4.742;2024-01-25T13:01:46;10.90;99.90
10046;DHT22;5063;50.878;4.742;2024-01-25T13:04:11;10.90;99.90
10046;DHT22;5063;50.878;4.742;2024-01-25T13:06:37;10.90;99.90
10046;DHT22;5063;50.878;4.742;2024-01-25T13:09:03;10.80;99.90
10046;DHT22;5063;50.878;4.742;2024-01-25T13:11:29;10.80;99.90
10046;DHT22;5063;50.878;4.742;2024-01-25T13:13:55;10.70;99.90
10046;DHT22;5063;50.878;4.742;2024-01-25T13:16:21;10.70;99.90
10046;DHT22;5063;50.878;4.742;2024-01-25T13:18:46;10.60;99.90
10046;DHT22;5063;50.878;4.742;2024-01-25T13:21:13;10.60;99.90
10046;DHT22;5063;50.878;4.742;2024-01-25T13:23:38;10.60;99.90
10046;DHT22;5063;50.878;4.742;2024-01-25T13:26:04;10.70;99.90
10046;DHT22;5063;50.878;4.742;2024-01-25T13:28:30;10.90;99.90
10046;DHT22;5063;50.878;4.742;2024-01-25T13:30:56;11.10;99.90
10046;DHT22;5063;50.878;4.742;2024-01-25T13:33:22;11.10;99.90
10046;DHT22;5063;50.878;4.742;2024-01-25T13:35:48;11.10;99.90
10046;DHT22;5063;50.878;4.742;2024-01-25T13:38:14;11.50;99.90
10046;DHT22;5063;50.878;4.742;2024-01-25T13:40:42;11.10;99.90
10046;DHT22;5063;50.878;4.742;2024-01-25T13:43:08;11.10;99.90
10046;DHT22;5063;50.878;4.742;2024-01-25T13:45:37;11.20;99.90
10046;DHT22;5063;50.878;4.742;2024-01-25T13:48:03;11.30;99.90
10046;DHT22;5063;50.878;4.742;2024-01-25T13:50:29;11.30;99.90
10046;DHT22;5063;50.878;4.742;2024-01-25T13:52:54;11.30;99.90
10046;DHT22;5063;50.878;4.742;2024-01-25T13:55:20;11.30;99.90
10046;DHT22;5063;50.878;4.742;2024-01-25T13:57:46;11.30;99.90
10046;DHT22;5063;50.878;4.742;2024-01-25T14:00:12;11.30;99.90
10046;DHT22;5063;50.878;4.742;2024-01-25T14:02:40;11.30;99.90
10046;DHT22;5063;50.878;4.742;2024-01-25T14:05:08;11.30;99.90
10046;DHT22;5063;50.878;4.742;2024-01-25T14:07:33;11.30;99.90
10046;DHT22;5063;50.878;4.742;2024-01-25T14:09:59;11.30;99.90
10046;DHT22;5063;50.878;4.742;2024-01-25T14:12:25;11.30;99.90
10046;DHT22;5063;50.878;4.742;2024-01-25T14:14:51;11.30;99.90
10046;DHT22;5063;50.878;4.742;2024-01-25T14:17:16;11.20;99.90
10046;DHT22;5063;50.878;4.742;2024-01-25T14:19:42;11.30;99.90
10046;DHT22;5063;50.878;4.742;2024-01-25T14:22:08;11.30;99.90
10046;DHT22;5063;50.878;4.742;2024-01-25T14:24:33;11.30;99.90
10046;DHT22;5063;50.878;4.742;2024-01-25T14:26:59;11.50;99.90
10046;DHT22;5063;50.878;4.742;2024-01-25T14:29:25;11.30;99.90
10046;DHT22;5063;50.878;4.742;2024-01-25T14:31:50;11.20;99.90
10046;DHT22;5063;50.878;4.742;2024-01-25T14:34:16;11.20;99.90
10046;DHT22;5063;50.878;4.742;2024-01-25T14:36:42;11.20;99.90
10046;DHT22;5063;50.878;4.742;2024-01-25T14:39:08;11.10;99.90
10046;DHT22;5063;50.878;4.742;2024-01-25T14:41:34;11.10;99.90
10046;DHT22;5063;50.878;4.742;2024-01-25T14:44:00;11.00;99.90
10046;DHT22;5063;50.878;4.742;2024-01-25T14:46:26;11.00;99.90
10046;DHT22;5063;50.878;4.742;2024-01-25T14:48:52;11.00;99.90
10046;DHT22;5063;50.878;4.742;2024-01-25T14:51:18;11.00;99.90
10046;DHT22;5063;50.878;4.742;2024-01-25T14:53:45;11.00;99.90
10046;DHT22;5063;50.878;4.742;2024-01-25T14:56:11;11.00;99.90
10046;DHT22;5063;50.878;4.742;2024-01-25T14:58:38;11.10;99.90
10046;DHT22;5063;50.878;4.742;2024-01-25T15:01:03;11.10;99.90
10046;DHT22;5063;50.878;4.742;2024-01-25T15:03:29;11.10;99.90
10046;DHT22;5063;50.878;4.742;2024-01-25T15:05:55;11.10;99.90
10046;DHT22;5063;50.878;4.742;2024-01-25T15:08:20;11.10;99.90
10046;DHT22;5063;50.878;4.742;2024-01-25T15:10:46;11.10;99.90
10046;DHT22;5063;50.878;4.742;2024-01-25T15:13:12;11.00;99.90
10046;DHT22;5063;50.878;4.742;2024-01-25T15:15:37;11.00;99.90
10046;DHT22;5063;50.878;4.742;2024-01-25T15:18:03;11.00;99.90
10046;DHT22;5063;50.878;4.742;2024-01-25T15:20:30;10.90;99.90
10046;DHT22;5063;50.878;4.742;2024-01-25T15:22:57;10.90;99.90
10046;DHT22;5063;50.878;4.742;2024-01-25T15:25:23;10.90;99.90
10046;DHT22;5063;50.878;4.742;2024-01-25T15:27:50;10.90;99.90
10046;DHT22;5063;50.878;4.742;2024-01-25T15:30:16;10.90;99.90
10046;DHT22;5063;50.878;4.742;2024-01-25T15:32:42;10.90;99.90
10046;DHT22;5063;50.878;4.742;2024-01-25T15:35:08;10.90;99.90
10046;DHT22;5063;50.878;4.742;2024-01-25T15:37:34;10.90;99.90
10046;DHT22;5063;50.878;4.742;2024-01-25T15:40:00;10.90;99.90
10046;DHT22;5063;50.878;4.742;2024-01-25T15:42:25;10.80;99.90
10046;DHT22;5063;50.878;4.742;2024-01-25T15:44:56;10.80;99.90
10046;DHT22;5063;50.878;4.742;2024-01-25T15:47:22;10.80;99.90
10046;DHT22;5063;50.878;4.742;2024-01-25T15:49:47;10.90;99.90
10046;DHT22;5063;50.878;4.742;2024-01-25T15:52:13;10.80;99.90
10046;DHT22;5063;50.878;4.742;2024-01-25T15:54:39;10.80;99.90
10046;DHT22;5063;50.878;4.742;2024-01-25T15:57:04;10.80;99.90
10046;DHT22;5063;50.878;4.742;2024-01-25T15:59:33;10.80;99.90